地図

経路データ

SID SEASON NUMBER BASIN SUBBASIN NAME ISO_TIME NATURE LAT LON WMO_WIND WMO_PRES WMO_AGENCY TRACK_TYPE DIST2LAND LANDFALL IFLAG USA_AGENCY USA_ATCF_ID USA_LAT USA_LON USA_RECORD USA_STATUS USA_WIND USA_PRES USA_SSHS USA_R34_NE USA_R34_SE USA_R34_SW USA_R34_NW USA_R50_NE USA_R50_SE USA_R50_SW USA_R50_NW USA_R64_NE USA_R64_SE USA_R64_SW USA_R64_NW USA_POCI USA_ROCI USA_RMW USA_EYE TOKYO_LAT TOKYO_LON TOKYO_GRADE TOKYO_WIND TOKYO_PRES TOKYO_R50_DIR TOKYO_R50_LONG TOKYO_R50_SHORT TOKYO_R30_DIR TOKYO_R30_LONG TOKYO_R30_SHORT TOKYO_LAND CMA_LAT CMA_LON CMA_CAT CMA_WIND CMA_PRES HKO_LAT HKO_LON HKO_CAT HKO_WIND HKO_PRES NEWDELHI_LAT NEWDELHI_LON NEWDELHI_GRADE NEWDELHI_WIND NEWDELHI_PRES NEWDELHI_CI NEWDELHI_DP NEWDELHI_POCI REUNION_LAT REUNION_LON REUNION_TYPE REUNION_WIND REUNION_PRES REUNION_TNUM REUNION_CI REUNION_RMW REUNION_R34_NE REUNION_R34_SE REUNION_R34_SW REUNION_R34_NW REUNION_R50_NE REUNION_R50_SE REUNION_R50_SW REUNION_R50_NW REUNION_R64_NE REUNION_R64_SE REUNION_R64_SW REUNION_R64_NW BOM_LAT BOM_LON BOM_TYPE BOM_WIND BOM_PRES BOM_TNUM BOM_CI BOM_RMW BOM_R34_NE BOM_R34_SE BOM_R34_SW BOM_R34_NW BOM_R50_NE BOM_R50_SE BOM_R50_SW BOM_R50_NW BOM_R64_NE BOM_R64_SE BOM_R64_SW BOM_R64_NW BOM_ROCI BOM_POCI BOM_EYE BOM_POS_METHOD BOM_PRES_METHOD NADI_LAT NADI_LON NADI_CAT NADI_WIND NADI_PRES WELLINGTON_LAT WELLINGTON_LON WELLINGTON_WIND WELLINGTON_PRES DS824_LAT DS824_LON DS824_STAGE DS824_WIND DS824_PRES TD9636_LAT TD9636_LON TD9636_STAGE TD9636_WIND TD9636_PRES TD9635_LAT TD9635_LON TD9635_WIND TD9635_PRES TD9635_ROCI NEUMANN_LAT NEUMANN_LON NEUMANN_CLASS NEUMANN_WIND NEUMANN_PRES MLC_LAT MLC_LON MLC_CLASS MLC_WIND MLC_PRES USA_GUST BOM_GUST BOM_GUST_PER REUNION_GUST REUNION_GUST_PER USA_SEAHGT USA_SEARAD_NE USA_SEARAD_SE USA_SEARAD_SW USA_SEARAD_NW STORM_SPEED STORM_DIR
1923199N11145 1923 42 WP MM NOT_NAMED 1923-07-18 10:00:00 NR 10.9000 145.300 main 1463 1463 __________O___ -1 10.9000 145.300 4 1 280
1923199N11145 1923 42 WP MM NOT_NAMED 1923-07-18 12:00:00 NR 10.9069 145.251 main 1463 1464 __________P___ -1 10.9069 145.251 4 2 279
1923199N11145 1923 42 WP MM NOT_NAMED 1923-07-18 15:00:00 NR 10.9209 145.165 main 1464 1464 __________P___ -1 10.9209 145.165 4 2 280
1923199N11145 1923 42 WP MM NOT_NAMED 1923-07-18 18:00:00 NR 10.9443 145.046 main 1467 1467 __________P___ -1 10.9443 145.046 4 3 282
1923199N11145 1923 42 WP MM NOT_NAMED 1923-07-18 21:00:00 NR 10.9828 144.873 main 1479 1479 __________P___ -1 10.9828 144.873 4 4 283
1923199N11145 1923 42 WP MM NOT_NAMED 1923-07-18 22:00:00 NR 11.0000 144.800 main 1481 1481 __________O___ -1 11.0000 144.800 4 5 284
1923199N11145 1923 42 WP MM NOT_NAMED 1923-07-19 00:00:00 NR 11.0413 144.629 main 1484 1484 __________P___ -1 11.0413 144.629 4 6 284
1923199N11145 1923 42 WP MM NOT_NAMED 1923-07-19 03:00:00 NR 11.1158 144.322 main 1500 1500 __________P___ -1 11.1158 144.322 4 7 284
1923199N11145 1923 42 WP MM NOT_NAMED 1923-07-19 06:00:00 NR 11.1972 143.977 main 1517 1517 __________P___ -1 11.1972 143.977 4 7 283
1923199N11145 1923 42 WP MM NOT_NAMED 1923-07-19 09:00:00 NR 11.2759 143.618 main 1537 1537 __________P___ -1 11.2759 143.618 4 7 282
1923199N11145 1923 42 WP MM NOT_NAMED 1923-07-19 10:00:00 NR 11.3000 143.500 main 1540 1540 __________O___ -1 11.3000 143.500 4 7 281
1923199N11145 1923 42 WP MM NOT_NAMED 1923-07-19 12:00:00 NR 11.3389 143.291 main 1545 1545 __________P___ -1 11.3389 143.291 4 6 280
1923199N11145 1923 42 WP MM NOT_NAMED 1923-07-19 15:00:00 NR 11.3910 142.978 main 1550 1539 __________P___ -1 11.3910 142.978 4 6 279
1923199N11145 1923 42 WP MM NOT_NAMED 1923-07-19 18:00:00 NR 11.4385 142.657 main 1539 1535 __________P___ -1 11.4385 142.657 4 7 278
1923199N11145 1923 42 WP MM NOT_NAMED 1923-07-19 21:00:00 NR 11.4845 142.318 main 1536 1533 __________P___ -1 11.4845 142.318 4 7 278
1923199N11145 1923 42 WP MM NOT_NAMED 1923-07-19 22:00:00 NR 11.5000 142.200 main 1533 1523 __________O___ -1 11.5000 142.200 4 7 277
1923199N11145 1923 42 WP MM NOT_NAMED 1923-07-20 00:00:00 NR 11.5308 141.943 main 1523 1520 __________P___ -1 11.5308 141.943 4 8 277
1923199N11145 1923 42 WP MM NOT_NAMED 1923-07-20 03:00:00 NR 11.5768 141.537 main 1521 1503 __________P___ -1 11.5768 141.537 4 8 277
1923199N11145 1923 42 WP MM NOT_NAMED 1923-07-20 06:00:00 NR 11.6255 141.126 main 1503 1495 __________P___ -1 11.6255 141.126 4 8 277
1923199N11145 1923 42 WP MM NOT_NAMED 1923-07-20 09:00:00 NR 11.6800 140.727 main 1497 1493 __________P___ -1 11.6800 140.727 4 8 278
1923199N11145 1923 42 WP MM NOT_NAMED 1923-07-20 10:00:00 NR 11.7000 140.600 main 1493 1486 __________O___ -1 11.7000 140.600 4 7 280
1923199N11145 1923 42 WP MM NOT_NAMED 1923-07-20 12:00:00 NR 11.7413 140.382 main 1486 1482 __________P___ -1 11.7413 140.382 4 6 282
1923199N11145 1923 42 WP MM NOT_NAMED 1923-07-20 15:00:00 NR 11.8098 140.074 main 1486 1479 __________P___ -1 11.8098 140.074 4 6 283
1923199N11145 1923 42 WP MM NOT_NAMED 1923-07-20 18:00:00 NR 11.8861 139.764 main 1486 1476 __________P___ -1 11.8861 139.764 4 7 284
1923199N11145 1923 42 WP MM NOT_NAMED 1923-07-20 21:00:00 NR 11.9702 139.425 main 1477 1466 __________P___ -1 11.9702 139.425 4 7 284
1923199N11145 1923 42 WP MM NOT_NAMED 1923-07-20 22:00:00 NR 12.0000 139.300 main 1466 1436 __________O___ -1 12.0000 139.300 4 8 283
1923199N11145 1923 42 WP MM NOT_NAMED 1923-07-21 00:00:00 NR 12.0637 139.015 main 1436 1386 __________P___ -1 12.0637 139.015 4 9 283
1923199N11145 1923 42 WP MM NOT_NAMED 1923-07-21 03:00:00 NR 12.1655 138.550 main 1386 1346 __________P___ -1 12.1655 138.550 4 10 282
1923199N11145 1923 42 WP MM NOT_NAMED 1923-07-21 06:00:00 NR 12.2693 138.058 main 1346 1295 __________P___ -1 12.2693 138.058 4 10 282
1923199N11145 1923 42 WP MM NOT_NAMED 1923-07-21 09:00:00 NR 12.3688 137.562 main 1295 1273 __________P___ -1 12.3688 137.562 4 10 281
1923199N11145 1923 42 WP MM NOT_NAMED 1923-07-21 10:00:00 NR 12.4000 137.400 main 1273 1241 __________O___ -1 12.4000 137.400 4 10 280
1923199N11145 1923 42 WP MM NOT_NAMED 1923-07-21 12:00:00 NR 12.4530 137.084 main 1242 1188 __________P___ -1 12.4530 137.084 4 9 279
1923199N11145 1923 42 WP MM NOT_NAMED 1923-07-21 15:00:00 NR 12.5262 136.615 main 1188 1146 __________P___ -1 12.5262 136.615 4 9 279
1923199N11145 1923 42 WP MM NOT_NAMED 1923-07-21 18:00:00 NR 12.5975 136.163 main 1146 1094 __________P___ -1 12.5975 136.163 4 9 280
1923199N11145 1923 42 WP MM NOT_NAMED 1923-07-21 21:00:00 NR 12.6729 135.735 main 1094 1083 __________P___ -1 12.6729 135.735 4 8 281
1923199N11145 1923 42 WP MM NOT_NAMED 1923-07-21 22:00:00 NR 12.7000 135.600 main 1083 1053 __________O___ -1 12.7000 135.600 4 8 283
1923199N11145 1923 42 WP MM NOT_NAMED 1923-07-22 00:00:00 NR 12.7633 135.349 main 1053 1023 __________P___ -1 12.7633 135.349 4 7 286
1923199N11145 1923 42 WP MM NOT_NAMED 1923-07-22 03:00:00 NR 12.8648 134.998 main 1023 991 __________P___ -1 12.8648 134.998 4 7 287
1923199N11145 1923 42 WP MM NOT_NAMED 1923-07-22 06:00:00 NR 12.9686 134.661 main 994 954 __________P___ -1 12.9686 134.661 4 7 287
1923199N11145 1923 42 WP MM NOT_NAMED 1923-07-22 09:00:00 NR 13.0686 134.318 main 954 943 __________P___ -1 13.0686 134.318 4 7 286
1923199N11145 1923 42 WP MM NOT_NAMED 1923-07-22 10:00:00 NR 13.1000 134.200 main 943 914 __________O___ -1 13.1000 134.200 4 8 283
1923199N11145 1923 42 WP MM NOT_NAMED 1923-07-22 12:00:00 NR 13.1557 133.937 main 914 873 __________P___ -1 13.1557 133.937 4 8 282
1923199N11145 1923 42 WP MM NOT_NAMED 1923-07-22 15:00:00 NR 13.2330 133.529 main 873 833 __________P___ -1 13.2330 133.529 4 8 281
1923199N11145 1923 42 WP MM NOT_NAMED 1923-07-22 18:00:00 NR 13.3055 133.120 main 833 792 __________P___ -1 13.3055 133.120 4 8 280
1923199N11145 1923 42 WP MM NOT_NAMED 1923-07-22 21:00:00 NR 13.3762 132.726 main 792 781 __________P___ -1 13.3762 132.726 4 8 281
1923199N11145 1923 42 WP MM NOT_NAMED 1923-07-22 22:00:00 NR 13.4000 132.600 main 781 760 __________O___ -1 13.4000 132.600 4 7 281
1923199N11145 1923 42 WP MM NOT_NAMED 1923-07-23 00:00:00 NR 13.4419 132.369 main 760 719 __________P___ -1 13.4419 132.369 4 7 281
1923199N11145 1923 42 WP MM NOT_NAMED 1923-07-23 03:00:00 NR 13.5047 132.041 main 719 690 __________P___ -1 13.5047 132.041 4 6 282
1923199N11145 1923 42 WP MM NOT_NAMED 1923-07-23 06:00:00 NR 13.5759 131.725 main 690 661 __________P___ -1 13.5759 131.725 4 6 285
1923199N11145 1923 42 WP MM NOT_NAMED 1923-07-23 09:00:00 NR 13.6648 131.408 main 661 650 __________P___ -1 13.6648 131.408 4 6 287
1923199N11145 1923 42 WP MM NOT_NAMED 1923-07-23 10:00:00 NR 13.7000 131.300 main 650 632 __________O___ -1 13.7000 131.300 4 7 291
1923199N11145 1923 42 WP MM NOT_NAMED 1923-07-23 12:00:00 NR 13.7854 131.078 main 632 594 __________P___ -1 13.7854 131.078 4 7 293
1923199N11145 1923 42 WP MM NOT_NAMED 1923-07-23 15:00:00 NR 13.9325 130.738 main 594 571 __________P___ -1 13.9325 130.738 4 7 295
1923199N11145 1923 42 WP MM NOT_NAMED 1923-07-23 18:00:00 NR 14.0914 130.388 main 571 536 __________P___ -1 14.0914 130.388 4 8 295
1923199N11145 1923 42 WP MM NOT_NAMED 1923-07-23 21:00:00 NR 14.2496 130.025 main 536 531 __________P___ -1 14.2496 130.025 4 8 294
1923199N11145 1923 42 WP MM NOT_NAMED 1923-07-23 22:00:00 NR 14.3000 129.900 main 531 517 __________O___ -1 14.3000 129.900 4 8 291
1923199N11145 1923 42 WP MM NOT_NAMED 1923-07-24 00:00:00 NR 14.3836 129.655 main 517 485 __________P___ -1 14.3836 129.655 4 8 289
1923199N11145 1923 42 WP MM NOT_NAMED 1923-07-24 03:00:00 NR 14.5026 129.275 main 485 455 __________P___ -1 14.5026 129.275 4 8 288
1923199N11145 1923 42 WP MM NOT_NAMED 1923-07-24 06:00:00 NR 14.6225 128.875 main 455 427 __________P___ -1 14.6225 128.875 4 8 287
1923199N11145 1923 42 WP MM NOT_NAMED 1923-07-24 09:00:00 NR 14.7527 128.449 main 427 420 __________P___ -1 14.7527 128.449 4 9 288
1923199N11145 1923 42 WP MM NOT_NAMED 1923-07-24 10:00:00 NR 14.8000 128.300 main 420 403 __________O___ -1 14.8000 128.300 4 9 288
1923199N11145 1923 42 WP MM NOT_NAMED 1923-07-24 12:00:00 NR 14.8972 127.997 main 403 355 __________P___ -1 14.8972 127.997 4 10 289
1923199N11145 1923 42 WP MM NOT_NAMED 1923-07-24 15:00:00 NR 15.0555 127.518 main 359 315 __________P___ -1 15.0555 127.518 4 10 289
1923199N11145 1923 42 WP MM NOT_NAMED 1923-07-24 18:00:00 NR 15.2317 127.012 main 315 281 __________P___ -1 15.2317 127.012 4 11 290
1923199N11145 1923 42 WP MM NOT_NAMED 1923-07-24 21:00:00 NR 15.4290 126.481 main 281 271 __________P___ -1 15.4290 126.481 4 11 291
1923199N11145 1923 42 WP MM NOT_NAMED 1923-07-24 22:00:00 NR 15.5000 126.300 main 271 248 __________O___ -1 15.5000 126.300 4 12 292
1923199N11145 1923 42 WP MM NOT_NAMED 1923-07-25 00:00:00 NR 15.6496 125.923 main 248 238 __________P___ -1 15.6496 125.923 4 12 293
1923199N11145 1923 42 WP MM NOT_NAMED 1923-07-25 03:00:00 NR 15.8929 125.339 main 238 233 __________P___ -1 15.8929 125.339 4 12 294
1923199N11145 1923 42 WP MM NOT_NAMED 1923-07-25 06:00:00 NR 16.1505 124.751 main 252 189 __________P___ -1 16.1505 124.751 4 12 295
1923199N11145 1923 42 WP MM NOT_NAMED 1923-07-25 09:00:00 NR 16.4130 124.182 main 189 165 __________P___ -1 16.4130 124.182 4 12 296
1923199N11145 1923 42 WP MM NOT_NAMED 1923-07-25 10:00:00 NR 16.5000 124.000 main 165 129 __________O___ -1 16.5000 124.000 4 11 296
1923199N11145 1923 42 WP MM NOT_NAMED 1923-07-25 12:00:00 NR 16.6555 123.668 main 129 74 __________P___ -1 16.6555 123.668 4 10 297
1923199N11145 1923 42 WP MM NOT_NAMED 1923-07-25 15:00:00 NR 16.8890 123.195 main 74 24 __________P___ -1 16.8890 123.195 4 10 298
1923199N11145 1923 42 WP MM NOT_NAMED 1923-07-25 18:00:00 NR 17.1340 122.734 main 24 0 __________P___ -1 17.1340 122.734 4 10 300
1923199N11145 1923 42 WP MM NOT_NAMED 1923-07-25 21:00:00 NR 17.4029 122.263 main 10 0 __________P___ -1 17.4029 122.263 4 11 301
1923199N11145 1923 42 WP MM NOT_NAMED 1923-07-25 22:00:00 NR 17.5000 122.100 main 0 0 __________O___ -1 17.5000 122.100 4 12 302
1923199N11145 1923 42 WP MM NOT_NAMED 1923-07-26 00:00:00 NR 17.7079 121.743 main 0 0 __________P___ -1 17.7079 121.743 4 12 302
1923199N11145 1923 42 WP MM NOT_NAMED 1923-07-26 03:00:00 NR 18.0450 121.187 main 0 0 __________P___ -1 18.0450 121.187 4 13 303
1923199N11145 1923 42 WP MM NOT_NAMED 1923-07-26 06:00:00 NR 18.4038 120.626 main 0 0 __________P___ -1 18.4038 120.626 4 13 305
1923199N11145 1923 42 WP MM NOT_NAMED 1923-07-26 09:00:00 NR 18.7751 120.077 main 69 77 __________P___ -1 18.7751 120.077 4 13 306
1923199N11145 1923 42 WP MM NOT_NAMED 1923-07-26 10:00:00 NR 18.9000 119.900 main 92 92 __________O___ -1 18.9000 119.900 4 12 308
1923199N11145 1923 42 WP MM NOT_NAMED 1923-07-26 12:00:00 NR 19.1544 119.561 main 138 146 __________P___ -1 19.1544 119.561 4 12 309
1923199N11145 1923 42 WP MM NOT_NAMED 1923-07-26 15:00:00 NR 19.5428 119.071 main 200 215 __________P___ -1 19.5428 119.071 4 12 310
1923199N11145 1923 42 WP MM NOT_NAMED 1923-07-26 18:00:00 NR 19.9256 118.601 main 268 268 __________P___ -1 19.9256 118.601 4 11 311
1923199N11145 1923 42 WP MM NOT_NAMED 1923-07-26 21:00:00 NR 20.2870 118.148 main 323 319 __________P___ -1 20.2870 118.148 4 11 310
1923199N11145 1923 42 WP MM NOT_NAMED 1923-07-26 22:00:00 NR 20.4000 118.000 main 319 285 __________O___ -1 20.4000 118.000 4 10 308
1923199N11145 1923 42 WP MM NOT_NAMED 1923-07-27 00:00:00 NR 20.6056 117.712 main 285 238 __________P___ -1 20.6056 117.712 4 10 307
1923199N11145 1923 42 WP MM NOT_NAMED 1923-07-27 03:00:00 NR 20.8892 117.294 main 238 194 __________P___ -1 20.8892 117.294 4 10 305
1923199N11145 1923 42 WP MM NOT_NAMED 1923-07-27 06:00:00 NR 21.1541 116.878 main 194 157 __________P___ -1 21.1541 116.878 4 9 304
1923199N11145 1923 42 WP MM NOT_NAMED 1923-07-27 09:00:00 NR 21.4130 116.449 main 157 143 __________P___ -1 21.4130 116.449 4 10 303
1923199N11145 1923 42 WP MM NOT_NAMED 1923-07-27 10:00:00 NR 21.5000 116.300 main 143 113 __________O___ -1 21.5000 116.300 4 10 304
1923199N11145 1923 42 WP MM NOT_NAMED 1923-07-27 12:00:00 NR 21.6853 116.007 main 113 78 __________P___ -1 21.6853 116.007 4 10 304
1923199N11145 1923 42 WP MM NOT_NAMED 1923-07-27 15:00:00 NR 21.9634 115.549 main 78 39 __________P___ -1 21.9634 115.549 4 10 302
1923199N11145 1923 42 WP MM NOT_NAMED 1923-07-27 18:00:00 NR 22.2396 115.053 main 39 0 __________P___ -1 22.2396 115.053 4 11 299
1923199N11145 1923 42 WP MM NOT_NAMED 1923-07-27 21:00:00 NR 22.5111 114.500 main 0 0 __________P___ -1 22.5111 114.500 4 12 297
1923199N11145 1923 42 WP MM NOT_NAMED 1923-07-27 22:00:00 NR 22.6000 114.300 main 0 0 __________O___ -1 22.6000 114.300 4 13 295
1923199N11145 1923 42 WP MM NOT_NAMED 1923-07-28 00:00:00 NR 22.7777 113.871 main 0 0 __________P___ -1 22.7777 113.871 4 14 293
1923199N11145 1923 42 WP MM NOT_NAMED 1923-07-28 03:00:00 NR 23.0380 113.170 main 0 0 __________P___ -1 23.0380 113.170 4 14 291
1923199N11145 1923 42 WP MM NOT_NAMED 1923-07-28 06:00:00 NR 23.2879 112.423 main 0 0 __________P___ -1 23.2879 112.423 4 15 289
1923199N11145 1923 42 WP MM NOT_NAMED 1923-07-28 09:00:00 NR 23.5245 111.656 main 0 0 __________P___ -1 23.5245 111.656 4 15 288
1923199N11145 1923 42 WP MM NOT_NAMED 1923-07-28 10:00:00 NR 23.6000 111.400 main 0 0 __________O___ -1 23.6000 111.400 4 15 288
1923199N11145 1923 42 WP MM NOT_NAMED 1923-07-28 12:00:00 NR 23.7458 110.892 main 0 0 __________P___ -1 23.7458 110.892 4 14 287
1923199N11145 1923 42 WP MM NOT_NAMED 1923-07-28 15:00:00 NR 23.9531 110.138 main 0 0 __________P___ -1 23.9531 110.138 4 14 286
1923199N11145 1923 42 WP MM NOT_NAMED 1923-07-28 18:00:00 NR 24.1495 109.392 main 0 0 __________P___ -1 24.1495 109.392 4 14 286
1923199N11145 1923 42 WP MM NOT_NAMED 1923-07-28 21:00:00 NR 24.3383 108.648 main 0 0 __________P___ -1 24.3383 108.648 4 14 285
1923199N11145 1923 42 WP MM NOT_NAMED 1923-07-28 22:00:00 NR 24.4000 108.400 main 0 __________O___ -1 24.4000 108.400 4 14 285

デジタル台風データ・検索

IBTrACS Databaseについて

本データベースは、米国NOAAが公開する1842年以降の世界の熱帯低気圧のベストトラックデータアーカイブInternational Best Track Archive for Climate Stewardship (IBTrACS)を、ウェブで閲覧しやすい形式に変換したものです。

最終更新日:2021-10-19